sensor_id;sensor_type;location;lat;lon;timestamp;pressure;altitude;pressure_sealevel;temperature;humidity
68891;BME280;55932;48.702;8.884;2022-11-15T00:08:58;95910;;;8.6;72.5
68891;BME280;55932;48.702;8.884;2022-11-15T00:11:28;95900;;;8.4;72.5
68891;BME280;55932;48.702;8.884;2022-11-15T00:16:28;95900;;;7.8;73
68891;BME280;55932;48.702;8.884;2022-11-15T00:19:10;95900;;;7.8;73
68891;BME280;55932;48.702;8.884;2022-11-15T00:21:41;95900;;;7.8;73
68891;BME280;55932;48.702;8.884;2022-11-15T00:24:11;95910;;;7.5;73
68891;BME280;55932;48.702;8.884;2022-11-15T00:26:40;95900;;;7.3;73.5
68891;BME280;55932;48.702;8.884;2022-11-15T00:29:10;95910;;;7.2;73.5
68891;BME280;55932;48.702;8.884;2022-11-15T00:31:31;95910;;;7.1;73.5
68891;BME280;55932;48.702;8.884;2022-11-15T00:34:02;95900;;;6.9;73.5
68891;BME280;55932;48.702;8.884;2022-11-15T00:36:21;95900;;;6.8;73.5
68891;BME280;55932;48.702;8.884;2022-11-15T00:38:51;95900;;;6.7;73.5
68891;BME280;55932;48.702;8.884;2022-11-15T00:41:22;95900;;;6.7;73.5
68891;BME280;55932;48.702;8.884;2022-11-15T00:44:15;95900;;;6.6;73.5
68891;BME280;55932;48.702;8.884;2022-11-15T00:49:16;95900;;;6.3;73.5
68891;BME280;55932;48.702;8.884;2022-11-15T00:51:47;95900;;;6.3;73.5
68891;BME280;55932;48.702;8.884;2022-11-15T00:56:46;95890;;;6.6;73
68891;BME280;55932;48.702;8.884;2022-11-15T00:59:07;95890;;;6.6;73
68891;BME280;55932;48.702;8.884;2022-11-15T01:01:37;95880;;;6.6;73
68891;BME280;55932;48.702;8.884;2022-11-15T01:04:07;95890;;;6.6;73
68891;BME280;55932;48.702;8.884;2022-11-15T01:06:46;95880;;;6.5;73
68891;BME280;55932;48.702;8.884;2022-11-15T01:09:16;95880;;;6.3;73
68891;BME280;55932;48.702;8.884;2022-11-15T01:11:37;95880;;;6.1;73
68891;BME280;55932;48.702;8.884;2022-11-15T01:14:07;95880;;;6.1;73
68891;BME280;55932;48.702;8.884;2022-11-15T01:16:37;95870;;;6.1;73
68891;BME280;55932;48.702;8.884;2022-11-15T01:19:07;95870;;;6.2;73
68891;BME280;55932;48.702;8.884;2022-11-15T01:21:37;95880;;;6.4;72.5
68891;BME280;55932;48.702;8.884;2022-11-15T01:24:08;95870;;;6.4;73
68891;BME280;55932;48.702;8.884;2022-11-15T01:26:38;95860;;;6.6;72.5
68891;BME280;55932;48.702;8.884;2022-11-15T01:29:08;95850;;;6.8;72.5
68891;BME280;55932;48.702;8.884;2022-11-15T01:33:56;95850;;;7.2;72
68891;BME280;55932;48.702;8.884;2022-11-15T01:36:27;95850;;;7.5;71.5
68891;BME280;55932;48.702;8.884;2022-11-15T01:38:58;95850;;;7.5;71.5
68891;BME280;55932;48.702;8.884;2022-11-15T01:41:30;95850;;;7.6;71.5
68891;BME280;55932;48.702;8.884;2022-11-15T01:44:36;95850;;;7.6;72
68891;BME280;55932;48.702;8.884;2022-11-15T01:46:31;95850;;;7.7;71.5
68891;BME280;55932;48.702;8.884;2022-11-15T01:49:02;95850;;;7.6;72
68891;BME280;55932;48.702;8.884;2022-11-15T01:51:31;95840;;;7.6;72
68891;BME280;55932;48.702;8.884;2022-11-15T02:01:53;95830;;;8;72
68891;BME280;55932;48.702;8.884;2022-11-15T02:04:16;95840;;;8.1;71.5
68891;BME280;55932;48.702;8.884;2022-11-15T02:06:44;95830;;;8.2;71.5
68891;BME280;55932;48.702;8.884;2022-11-15T02:11:33;95830;;;7.8;72
68891;BME280;55932;48.702;8.884;2022-11-15T02:14:04;95820;;;7.9;72
68891;BME280;55932;48.702;8.884;2022-11-15T02:16:35;95820;;;7.8;72
68891;BME280;55932;48.702;8.884;2022-11-15T02:24:11;95810;;;7.8;72
68891;BME280;55932;48.702;8.884;2022-11-15T02:26:57;95810;;;7.8;72
68891;BME280;55932;48.702;8.884;2022-11-15T02:29:32;95810;;;7.9;72
68891;BME280;55932;48.702;8.884;2022-11-15T02:31:51;95800;;;8;71.5
68891;BME280;55932;48.702;8.884;2022-11-15T02:39:23;95800;;;7.9;72
68891;BME280;55932;48.702;8.884;2022-11-15T02:42:01;95800;;;7.8;72
68891;BME280;55932;48.702;8.884;2022-11-15T02:44:31;95800;;;7.7;72
68891;BME280;55932;48.702;8.884;2022-11-15T02:54:32;95790;;;7.9;72
68891;BME280;55932;48.702;8.884;2022-11-15T02:57:04;95790;;;8;71.5
68891;BME280;55932;48.702;8.884;2022-11-15T03:01:56;95780;;;8.1;71.5
68891;BME280;55932;48.702;8.884;2022-11-15T03:04:35;95780;;;8.1;71.5
68891;BME280;55932;48.702;8.884;2022-11-15T03:06:55;95770;;;8.1;71.5
68891;BME280;55932;48.702;8.884;2022-11-15T03:09:28;95770;;;8.1;71.5
68891;BME280;55932;48.702;8.884;2022-11-15T03:11:44;95770;;;8;72
68891;BME280;55932;48.702;8.884;2022-11-15T03:16:45;95770;;;7.8;72
68891;BME280;55932;48.702;8.884;2022-11-15T03:19:17;95760;;;7.7;72
68891;BME280;55932;48.702;8.884;2022-11-15T03:21:44;95760;;;7.8;72
68891;BME280;55932;48.702;8.884;2022-11-15T03:24:15;95770;;;8;72
68891;BME280;55932;48.702;8.884;2022-11-15T03:26:45;95760;;;7.9;72
68891;BME280;55932;48.702;8.884;2022-11-15T03:31:59;95750;;;8.1;71.5
68891;BME280;55932;48.702;8.884;2022-11-15T03:39:29;95750;;;7.8;72
68891;BME280;55932;48.702;8.884;2022-11-15T03:44:40;95750;;;8.2;71.5
68891;BME280;55932;48.702;8.884;2022-11-15T03:47:04;95750;;;8.3;71.5
68891;BME280;55932;48.702;8.884;2022-11-15T03:49:32;95750;;;8.5;71.5
68891;BME280;55932;48.702;8.884;2022-11-15T03:54:19;95740;;;8.6;71.5
68891;BME280;55932;48.702;8.884;2022-11-15T04:04:20;95730;;;9;71
68891;BME280;55932;48.702;8.884;2022-11-15T04:06:51;95730;;;8.9;71
68891;BME280;55932;48.702;8.884;2022-11-15T04:09:33;95730;;;8.7;71.5
68891;BME280;55932;48.702;8.884;2022-11-15T04:12:03;95730;;;8.7;71.5
68891;BME280;55932;48.702;8.884;2022-11-15T04:14:33;95730;;;8.5;71.5
68891;BME280;55932;48.702;8.884;2022-11-15T04:16:52;95720;;;8.5;72
68891;BME280;55932;48.702;8.884;2022-11-15T04:19:23;95730;;;8.5;72
68891;BME280;55932;48.702;8.884;2022-11-15T04:26:54;95730;;;8.7;71.5
68891;BME280;55932;48.702;8.884;2022-11-15T04:29:25;95730;;;8.7;71.5
68891;BME280;55932;48.702;8.884;2022-11-15T04:31:55;95720;;;8.6;71.5
68891;BME280;55932;48.702;8.884;2022-11-15T04:34:26;95720;;;8.5;71.5
68891;BME280;55932;48.702;8.884;2022-11-15T04:39:38;95730;;;8.2;72
68891;BME280;55932;48.702;8.884;2022-11-15T04:42:08;95720;;;8.2;72
68891;BME280;55932;48.702;8.884;2022-11-15T04:44:38;95730;;;8.3;72
68891;BME280;55932;48.702;8.884;2022-11-15T04:47:08;95720;;;8.4;72
68891;BME280;55932;48.702;8.884;2022-11-15T04:49:38;95720;;;8.5;72
68891;BME280;55932;48.702;8.884;2022-11-15T04:54:27;95710;;;8.6;72
68891;BME280;55932;48.702;8.884;2022-11-15T04:56:58;95720;;;8.5;72
68891;BME280;55932;48.702;8.884;2022-11-15T04:59:28;95710;;;8.5;72
68891;BME280;55932;48.702;8.884;2022-11-15T05:01:59;95700;;;8.5;72
68891;BME280;55932;48.702;8.884;2022-11-15T05:04:30;95700;;;8.5;72
68891;BME280;55932;48.702;8.884;2022-11-15T05:07:12;95700;;;8.5;72
68891;BME280;55932;48.702;8.884;2022-11-15T05:09:42;95700;;;8.3;72
68891;BME280;55932;48.702;8.884;2022-11-15T05:12:11;95690;;;8.4;72
68891;BME280;55932;48.702;8.884;2022-11-15T05:19:31;95680;;;8.5;72
68891;BME280;55932;48.702;8.884;2022-11-15T05:22:02;95690;;;8.5;72
68891;BME280;55932;48.702;8.884;2022-11-15T05:24:32;95690;;;8.4;71.5
68891;BME280;55932;48.702;8.884;2022-11-15T05:27:03;95690;;;8.4;72
68891;BME280;55932;48.702;8.884;2022-11-15T05:29:45;95690;;;8.5;72
68891;BME280;55932;48.702;8.884;2022-11-15T05:32:15;95690;;;8.5;71.5
68891;BME280;55932;48.702;8.884;2022-11-15T05:34:45;95680;;;8.4;71.5
68891;BME280;55932;48.702;8.884;2022-11-15T05:37:04;95690;;;8.3;71.5
68891;BME280;55932;48.702;8.884;2022-11-15T05:39:35;95680;;;8.2;72
68891;BME280;55932;48.702;8.884;2022-11-15T05:47:08;95680;;;7.9;72
68891;BME280;55932;48.702;8.884;2022-11-15T05:49:37;95680;;;7.8;72.5
68891;BME280;55932;48.702;8.884;2022-11-15T05:52:11;95670;;;7.7;72.5
68891;BME280;55932;48.702;8.884;2022-11-15T05:54:49;95680;;;7.6;72.5
68891;BME280;55932;48.702;8.884;2022-11-15T05:57:20;95680;;;7.5;72.5
68891;BME280;55932;48.702;8.884;2022-11-15T05:59:59;95690;;;7.3;72.5
68891;BME280;55932;48.702;8.884;2022-11-15T06:02:20;95680;;;7.2;73
68891;BME280;55932;48.702;8.884;2022-11-15T06:04:50;95680;;;7.3;72.5
68891;BME280;55932;48.702;8.884;2022-11-15T06:15:02;95670;;;8;72
68891;BME280;55932;48.702;8.884;2022-11-15T06:17:33;95660;;;8.1;72
68891;BME280;55932;48.702;8.884;2022-11-15T06:20:13;95670;;;8.2;71.5
68891;BME280;55932;48.702;8.884;2022-11-15T06:22:23;95680;;;8.3;71.5
68891;BME280;55932;48.702;8.884;2022-11-15T06:24:53;95680;;;8;72
68891;BME280;55932;48.702;8.884;2022-11-15T06:27:23;95680;;;7.9;72
68891;BME280;55932;48.702;8.884;2022-11-15T06:32:12;95690;;;7.8;72.5
68891;BME280;55932;48.702;8.884;2022-11-15T06:39:44;95680;;;8.1;72
68891;BME280;55932;48.702;8.884;2022-11-15T06:42:14;95680;;;8.3;71.5
68891;BME280;55932;48.702;8.884;2022-11-15T06:44:45;95680;;;8.5;71.5
68891;BME280;55932;48.702;8.884;2022-11-15T06:47:15;95680;;;8.6;71
68891;BME280;55932;48.702;8.884;2022-11-15T06:57:17;95690;;;8.2;72
68891;BME280;55932;48.702;8.884;2022-11-15T07:12:45;95700;;;8.6;71.5
68891;BME280;55932;48.702;8.884;2022-11-15T07:20:30;95700;;;9.3;71
68891;BME280;55932;48.702;8.884;2022-11-15T07:22:45;95690;;;9.5;70.5
68891;BME280;55932;48.702;8.884;2022-11-15T07:25:16;95700;;;9.7;70.5
68891;BME280;55932;48.702;8.884;2022-11-15T07:30:05;95690;;;10;70.5
68891;BME280;55932;48.702;8.884;2022-11-15T07:35:06;95680;;;10.2;70.5
68891;BME280;55932;48.702;8.884;2022-11-15T07:37:36;95670;;;10.2;70.5
68891;BME280;55932;48.702;8.884;2022-11-15T07:40:06;95670;;;10.2;70.5
68891;BME280;55932;48.702;8.884;2022-11-15T07:42:36;95670;;;10.3;70
68891;BME280;55932;48.702;8.884;2022-11-15T07:45:15;95680;;;10.3;70.5
68891;BME280;55932;48.702;8.884;2022-11-15T07:47:36;95680;;;10.2;70.5
68891;BME280;55932;48.702;8.884;2022-11-15T07:50:16;95680;;;10.1;70.5
68891;BME280;55932;48.702;8.884;2022-11-15T07:52:36;95670;;;10.2;70.5
68891;BME280;55932;48.702;8.884;2022-11-15T07:57:26;95680;;;10.1;70.5
68891;BME280;55932;48.702;8.884;2022-11-15T07:59:56;95680;;;10.1;71
68891;BME280;55932;48.702;8.884;2022-11-15T08:02:27;95680;;;10.2;71
68891;BME280;55932;48.702;8.884;2022-11-15T08:04:57;95680;;;10.3;70.5
68891;BME280;55932;48.702;8.884;2022-11-15T08:12:28;95680;;;10.9;70
68891;BME280;55932;48.702;8.884;2022-11-15T08:17:40;95670;;;11.2;70
68891;BME280;55932;48.702;8.884;2022-11-15T08:20:10;95670;;;11.5;69.5
68891;BME280;55932;48.702;8.884;2022-11-15T08:22:40;95660;;;11.8;69.5
68891;BME280;55932;48.702;8.884;2022-11-15T08:25:11;95670;;;12.2;69
68891;BME280;55932;48.702;8.884;2022-11-15T08:27:40;95670;;;12.3;69
68891;BME280;55932;48.702;8.884;2022-11-15T08:30:11;95660;;;12.4;69
68891;BME280;55932;48.702;8.884;2022-11-15T08:32:40;95660;;;12.8;68.5
68891;BME280;55932;48.702;8.884;2022-11-15T08:50:03;95630;;;14.4;69
68891;BME280;55932;48.702;8.884;2022-11-15T08:57:35;95640;;;13.6;69
68891;BME280;55932;48.702;8.884;2022-11-15T09:00:05;95630;;;13.1;69.5
68891;BME280;55932;48.702;8.884;2022-11-15T09:02:37;95640;;;12.8;70
68891;BME280;55932;48.702;8.884;2022-11-15T09:05:37;95640;;;12.6;70.5
68891;BME280;55932;48.702;8.884;2022-11-15T09:08:08;95640;;;12.5;70.5
68891;BME280;55932;48.702;8.884;2022-11-15T09:12:49;95640;;;12.6;70
68891;BME280;55932;48.702;8.884;2022-11-15T09:15:20;95640;;;12.6;70
68891;BME280;55932;48.702;8.884;2022-11-15T09:17:50;95630;;;12.8;70
68891;BME280;55932;48.702;8.884;2022-11-15T09:20:20;95630;;;13;70
68891;BME280;55932;48.702;8.884;2022-11-15T09:22:50;95630;;;13.5;69.5
68891;BME280;55932;48.702;8.884;2022-11-15T09:25:10;95620;;;14.6;69
68891;BME280;55932;48.702;8.884;2022-11-15T09:30:10;95620;;;14.3;69
68891;BME280;55932;48.702;8.884;2022-11-15T09:35:11;95610;;;14.3;69
68891;BME280;55932;48.702;8.884;2022-11-15T09:37:42;95610;;;14.4;69
68891;BME280;55932;48.702;8.884;2022-11-15T09:40:12;95610;;;14.3;69
68891;BME280;55932;48.702;8.884;2022-11-15T09:42:46;95600;;;14.1;69
68891;BME280;55932;48.702;8.884;2022-11-15T09:52:45;95610;;;13.7;69.5
68891;BME280;55932;48.702;8.884;2022-11-15T09:55:41;95610;;;13.8;69.5
68891;BME280;55932;48.702;8.884;2022-11-15T09:58:23;95610;;;13.9;69
68891;BME280;55932;48.702;8.884;2022-11-15T10:00:58;95610;;;13.9;69.5
68891;BME280;55932;48.702;8.884;2022-11-15T10:05:29;95600;;;14.2;69.5
68891;BME280;55932;48.702;8.884;2022-11-15T10:08:03;95600;;;14.2;69
68891;BME280;55932;48.702;8.884;2022-11-15T10:10:32;95590;;;14.3;69
68891;BME280;55932;48.702;8.884;2022-11-15T10:28:16;95580;;;14.4;69
68891;BME280;55932;48.702;8.884;2022-11-15T10:36:14;95570;;;14.1;69.5
68891;BME280;55932;48.702;8.884;2022-11-15T10:38:24;95570;;;14.2;69.5
68891;BME280;55932;48.702;8.884;2022-11-15T10:40:46;95560;;;14;69.5
68891;BME280;55932;48.702;8.884;2022-11-15T10:43:35;95560;;;14;69.5
68891;BME280;55932;48.702;8.884;2022-11-15T10:45:50;95560;;;13.9;69.5
68891;BME280;55932;48.702;8.884;2022-11-15T10:50:37;95560;;;13.6;70
68891;BME280;55932;48.702;8.884;2022-11-15T10:53:15;95560;;;13.6;70.5
68891;BME280;55932;48.702;8.884;2022-11-15T10:55:37;95560;;;13.6;70.5
68891;BME280;55932;48.702;8.884;2022-11-15T11:03:29;95550;;;13.9;69.5
68891;BME280;55932;48.702;8.884;2022-11-15T11:06:03;95540;;;14;69.5
68891;BME280;55932;48.702;8.884;2022-11-15T11:10:42;95540;;;14;69.5
68891;BME280;55932;48.702;8.884;2022-11-15T11:13:13;95540;;;14.1;69.5
68891;BME280;55932;48.702;8.884;2022-11-15T11:15:40;95540;;;14.1;69.5
68891;BME280;55932;48.702;8.884;2022-11-15T11:26:08;95520;;;13.9;69.5
68891;BME280;55932;48.702;8.884;2022-11-15T11:28:37;95520;;;13.8;70
68891;BME280;55932;48.702;8.884;2022-11-15T11:31:10;95520;;;13.8;70
68891;BME280;55932;48.702;8.884;2022-11-15T11:41:51;95500;;;14.4;70
68891;BME280;55932;48.702;8.884;2022-11-15T11:43:25;95490;;;14.7;69
68891;BME280;55932;48.702;8.884;2022-11-15T11:45:53;95490;;;14.8;69
68891;BME280;55932;48.702;8.884;2022-11-15T11:50:56;95490;;;14.5;69.5
68891;BME280;55932;48.702;8.884;2022-11-15T11:53:19;95490;;;14.4;69.5
68891;BME280;55932;48.702;8.884;2022-11-15T11:55:46;95480;;;14.4;70
68891;BME280;55932;48.702;8.884;2022-11-15T11:58:17;95480;;;14.5;69.5
68891;BME280;55932;48.702;8.884;2022-11-15T12:03:09;95480;;;14.4;69.5
68891;BME280;55932;48.702;8.884;2022-11-15T12:05:36;95480;;;14.2;70
68891;BME280;55932;48.702;8.884;2022-11-15T12:13:15;95470;;;13.9;70
68891;BME280;55932;48.702;8.884;2022-11-15T12:15:39;95470;;;13.9;70
68891;BME280;55932;48.702;8.884;2022-11-15T12:18:08;95470;;;13.8;70
68891;BME280;55932;48.702;8.884;2022-11-15T12:23:21;95460;;;13.7;70
68891;BME280;55932;48.702;8.884;2022-11-15T12:26:06;95460;;;13.6;70.5
68891;BME280;55932;48.702;8.884;2022-11-15T12:28:25;95460;;;13.5;70.5
68891;BME280;55932;48.702;8.884;2022-11-15T12:30:41;95450;;;13.6;70.5
68891;BME280;55932;48.702;8.884;2022-11-15T12:33:28;95450;;;13.7;70
68891;BME280;55932;48.702;8.884;2022-11-15T12:43:39;95450;;;13.8;70
68891;BME280;55932;48.702;8.884;2022-11-15T12:45:43;95450;;;13.7;70.5
68891;BME280;55932;48.702;8.884;2022-11-15T12:53:27;95440;;;13.6;70.5
68891;BME280;55932;48.702;8.884;2022-11-15T12:56:20;95440;;;13.7;70
68891;BME280;55932;48.702;8.884;2022-11-15T13:00:55;95430;;;13.9;70
68891;BME280;55932;48.702;8.884;2022-11-15T13:03:26;95430;;;13.8;70.5
68891;BME280;55932;48.702;8.884;2022-11-15T13:05:57;95420;;;14;70.5
68891;BME280;55932;48.702;8.884;2022-11-15T13:11:41;95420;;;14.2;70
68891;BME280;55932;48.702;8.884;2022-11-15T13:15:58;95410;;;14.3;70
68891;BME280;55932;48.702;8.884;2022-11-15T13:18:30;95400;;;14.2;70
68891;BME280;55932;48.702;8.884;2022-11-15T13:20:57;95400;;;14.1;70
68891;BME280;55932;48.702;8.884;2022-11-15T13:23:27;95390;;;13.9;70.5
68891;BME280;55932;48.702;8.884;2022-11-15T13:30:49;95390;;;13.6;70.5
68891;BME280;55932;48.702;8.884;2022-11-15T13:33:19;95380;;;13.5;70.5
68891;BME280;55932;48.702;8.884;2022-11-15T13:35:50;95380;;;13.6;70.5
68891;BME280;55932;48.702;8.884;2022-11-15T13:43:34;95370;;;12.8;71.5
68891;BME280;55932;48.702;8.884;2022-11-15T13:46:11;95360;;;12.7;71.5
68891;BME280;55932;48.702;8.884;2022-11-15T13:48:31;95360;;;12.7;71.5
68891;BME280;55932;48.702;8.884;2022-11-15T13:51:03;95350;;;12.7;71
68891;BME280;55932;48.702;8.884;2022-11-15T13:53:32;95350;;;12.9;71
68891;BME280;55932;48.702;8.884;2022-11-15T13:58:44;95350;;;12.9;71
68891;BME280;55932;48.702;8.884;2022-11-15T14:03:55;95340;;;13.1;71
68891;BME280;55932;48.702;8.884;2022-11-15T14:11:19;95330;;;13.2;71
68891;BME280;55932;48.702;8.884;2022-11-15T14:18:51;95330;;;13.4;71
68891;BME280;55932;48.702;8.884;2022-11-15T14:21:20;95320;;;13.5;70.5
68891;BME280;55932;48.702;8.884;2022-11-15T14:23:51;95320;;;13.6;70.5
68891;BME280;55932;48.702;8.884;2022-11-15T14:26:25;95320;;;13.6;70.5
68891;BME280;55932;48.702;8.884;2022-11-15T14:28:52;95310;;;13.5;70.5
68891;BME280;55932;48.702;8.884;2022-11-15T14:31:32;95300;;;13.3;70.5
68891;BME280;55932;48.702;8.884;2022-11-15T14:34:03;95300;;;13.2;71
68891;BME280;55932;48.702;8.884;2022-11-15T14:36:24;95290;;;13.2;71
68891;BME280;55932;48.702;8.884;2022-11-15T14:38:54;95290;;;13.1;71
68891;BME280;55932;48.702;8.884;2022-11-15T14:41:25;95290;;;13;71
68891;BME280;55932;48.702;8.884;2022-11-15T14:43:44;95290;;;13;71
68891;BME280;55932;48.702;8.884;2022-11-15T14:46:14;95280;;;13;70.5
68891;BME280;55932;48.702;8.884;2022-11-15T14:48:44;95280;;;12.8;71
68891;BME280;55932;48.702;8.884;2022-11-15T14:53:53;95280;;;12.7;71
68891;BME280;55932;48.702;8.884;2022-11-15T14:56:16;95280;;;12.6;71
68891;BME280;55932;48.702;8.884;2022-11-15T14:58:44;95280;;;12.6;71
68891;BME280;55932;48.702;8.884;2022-11-15T15:01:29;95280;;;12.6;71
68891;BME280;55932;48.702;8.884;2022-11-15T15:03:44;95280;;;12.6;71
68891;BME280;55932;48.702;8.884;2022-11-15T15:06:15;95280;;;12.6;71
68891;BME280;55932;48.702;8.884;2022-11-15T15:08:45;95280;;;12.5;71
68891;BME280;55932;48.702;8.884;2022-11-15T15:11:16;95280;;;12.5;71
68891;BME280;55932;48.702;8.884;2022-11-15T15:13:45;95270;;;12.4;71
68891;BME280;55932;48.702;8.884;2022-11-15T15:16:24;95270;;;12.3;71
68891;BME280;55932;48.702;8.884;2022-11-15T15:21:04;95260;;;12.3;71
68891;BME280;55932;48.702;8.884;2022-11-15T15:23:35;95250;;;12.2;71.5
68891;BME280;55932;48.702;8.884;2022-11-15T15:26:06;95250;;;12.2;71.5
68891;BME280;55932;48.702;8.884;2022-11-15T15:28:38;95240;;;12.2;71.5
68891;BME280;55932;48.702;8.884;2022-11-15T15:31:06;95250;;;12.2;71.5
68891;BME280;55932;48.702;8.884;2022-11-15T15:33:37;95240;;;12.2;71.5
68891;BME280;55932;48.702;8.884;2022-11-15T15:36:10;95250;;;12.1;71.5
68891;BME280;55932;48.702;8.884;2022-11-15T15:46:29;95230;;;12.2;71.5
68891;BME280;55932;48.702;8.884;2022-11-15T15:48:50;95230;;;12.2;71.5
68891;BME280;55932;48.702;8.884;2022-11-15T15:51:20;95230;;;12.1;71.5
68891;BME280;55932;48.702;8.884;2022-11-15T15:53:51;95220;;;12.1;71.5
68891;BME280;55932;48.702;8.884;2022-11-15T15:58:39;95210;;;12;71.5
68891;BME280;55932;48.702;8.884;2022-11-15T16:01:10;95210;;;12;71.5
68891;BME280;55932;48.702;8.884;2022-11-15T16:08:44;95200;;;12;71.5
68891;BME280;55932;48.702;8.884;2022-11-15T16:16:13;95180;;;11.9;71.5
68891;BME280;55932;48.702;8.884;2022-11-15T16:19:07;95180;;;11.9;71.5
68891;BME280;55932;48.702;8.884;2022-11-15T16:24:07;95180;;;11.9;71
68891;BME280;55932;48.702;8.884;2022-11-15T16:26:38;95180;;;11.8;71
68891;BME280;55932;48.702;8.884;2022-11-15T16:29:09;95170;;;11.6;71.5
68891;BME280;55932;48.702;8.884;2022-11-15T16:31:28;95170;;;11.5;71.5
68891;BME280;55932;48.702;8.884;2022-11-15T16:34:06;95160;;;11.5;71.5
68891;BME280;55932;48.702;8.884;2022-11-15T16:36:37;95160;;;11.4;71.5
68891;BME280;55932;48.702;8.884;2022-11-15T16:41:17;95160;;;11.4;71
68891;BME280;55932;48.702;8.884;2022-11-15T16:43:47;95170;;;11.3;71.5
68891;BME280;55932;48.702;8.884;2022-11-15T16:46:19;95170;;;11.3;71.5
68891;BME280;55932;48.702;8.884;2022-11-15T16:48:48;95170;;;11.5;71
68891;BME280;55932;48.702;8.884;2022-11-15T16:51:19;95160;;;11.5;71
68891;BME280;55932;48.702;8.884;2022-11-15T16:58:52;95160;;;11.6;71
68891;BME280;55932;48.702;8.884;2022-11-15T17:01:49;95150;;;11.6;71
68891;BME280;55932;48.702;8.884;2022-11-15T17:06:32;95150;;;11.5;71
68891;BME280;55932;48.702;8.884;2022-11-15T17:09:03;95150;;;11.4;71
68891;BME280;55932;48.702;8.884;2022-11-15T17:11:33;95150;;;11.3;71.5
68891;BME280;55932;48.702;8.884;2022-11-15T17:16:46;95140;;;11.3;71
68891;BME280;55932;48.702;8.884;2022-11-15T17:21:46;95140;;;11.1;71.5
68891;BME280;55932;48.702;8.884;2022-11-15T17:24:16;95140;;;11.2;71.5
68891;BME280;55932;48.702;8.884;2022-11-15T17:26:56;95140;;;11.2;71.5
68891;BME280;55932;48.702;8.884;2022-11-15T17:29:27;95130;;;11.1;71.5
68891;BME280;55932;48.702;8.884;2022-11-15T17:31:37;95130;;;11.1;71.5
68891;BME280;55932;48.702;8.884;2022-11-15T17:34:07;95130;;;11.1;71.5
68891;BME280;55932;48.702;8.884;2022-11-15T17:36:38;95120;;;11.2;71.5
68891;BME280;55932;48.702;8.884;2022-11-15T17:38:57;95120;;;11.2;71.5
68891;BME280;55932;48.702;8.884;2022-11-15T17:41:29;95130;;;11;71.5
68891;BME280;55932;48.702;8.884;2022-11-15T17:46:28;95130;;;10.8;72
68891;BME280;55932;48.702;8.884;2022-11-15T17:48:59;95130;;;10.8;72
68891;BME280;55932;48.702;8.884;2022-11-15T17:51:29;95120;;;10.8;71.5
68891;BME280;55932;48.702;8.884;2022-11-15T17:56:42;95120;;;10.7;72
68891;BME280;55932;48.702;8.884;2022-11-15T17:59:12;95120;;;10.7;71.5
68891;BME280;55932;48.702;8.884;2022-11-15T18:01:42;95120;;;10.7;72
68891;BME280;55932;48.702;8.884;2022-11-15T18:06:31;95120;;;10.7;72
68891;BME280;55932;48.702;8.884;2022-11-15T18:14:04;95110;;;10.7;71.5
68891;BME280;55932;48.702;8.884;2022-11-15T18:16:35;95110;;;10.8;71.5
68891;BME280;55932;48.702;8.884;2022-11-15T18:19:04;95110;;;10.9;71.5
68891;BME280;55932;48.702;8.884;2022-11-15T18:21:34;95120;;;10.9;71
68891;BME280;55932;48.702;8.884;2022-11-15T18:24:16;95120;;;11.1;71
68891;BME280;55932;48.702;8.884;2022-11-15T18:26:46;95120;;;11.2;71
68891;BME280;55932;48.702;8.884;2022-11-15T18:29:16;95110;;;11.2;71
68891;BME280;55932;48.702;8.884;2022-11-15T18:31:46;95110;;;11.2;71
68891;BME280;55932;48.702;8.884;2022-11-15T18:36:36;95110;;;11.2;71
68891;BME280;55932;48.702;8.884;2022-11-15T18:41:37;95100;;;11.3;71
68891;BME280;55932;48.702;8.884;2022-11-15T18:46:39;95100;;;11.2;71
68891;BME280;55932;48.702;8.884;2022-11-15T18:51:51;95080;;;11.2;71
68891;BME280;55932;48.702;8.884;2022-11-15T18:54:21;95080;;;11.2;71
68891;BME280;55932;48.702;8.884;2022-11-15T18:56:51;95080;;;11.1;71
68891;BME280;55932;48.702;8.884;2022-11-15T19:07:03;95060;;;11;71.5
68891;BME280;55932;48.702;8.884;2022-11-15T19:09:43;95060;;;10.8;71.5
68891;BME280;55932;48.702;8.884;2022-11-15T19:14:24;95050;;;10.8;71.5
68891;BME280;55932;48.702;8.884;2022-11-15T19:16:53;95050;;;10.8;71
68891;BME280;55932;48.702;8.884;2022-11-15T19:19:24;95040;;;10.7;71.5
68891;BME280;55932;48.702;8.884;2022-11-15T19:26:43;95030;;;10.7;71.5
68891;BME280;55932;48.702;8.884;2022-11-15T19:29:14;95030;;;10.7;71.5
68891;BME280;55932;48.702;8.884;2022-11-15T19:31:44;95040;;;10.7;71.5
68891;BME280;55932;48.702;8.884;2022-11-15T19:34:15;95040;;;10.8;71
68891;BME280;55932;48.702;8.884;2022-11-15T19:39:26;95030;;;10.8;71
68891;BME280;55932;48.702;8.884;2022-11-15T19:41:57;95030;;;10.7;71
68891;BME280;55932;48.702;8.884;2022-11-15T19:44:27;95030;;;10.7;71
68891;BME280;55932;48.702;8.884;2022-11-15T19:46:47;95030;;;10.7;71.5
68891;BME280;55932;48.702;8.884;2022-11-15T19:54:18;95030;;;10.7;71
68891;BME280;55932;48.702;8.884;2022-11-15T19:56:49;95040;;;10.8;71
68891;BME280;55932;48.702;8.884;2022-11-15T20:01:50;95030;;;10.7;71
68891;BME280;55932;48.702;8.884;2022-11-15T20:04:20;95030;;;10.7;71
68891;BME280;55932;48.702;8.884;2022-11-15T20:06:50;95030;;;10.7;71.5
68891;BME280;55932;48.702;8.884;2022-11-15T20:09:21;95030;;;10.7;71
68891;BME280;55932;48.702;8.884;2022-11-15T20:11:52;95020;;;10.7;71
68891;BME280;55932;48.702;8.884;2022-11-15T20:14:22;95020;;;10.7;71.5
68891;BME280;55932;48.702;8.884;2022-11-15T20:16:52;95030;;;10.8;71
68891;BME280;55932;48.702;8.884;2022-11-15T20:32:06;95000;;;10.9;71
68891;BME280;55932;48.702;8.884;2022-11-15T20:34:36;95000;;;10.9;71
68891;BME280;55932;48.702;8.884;2022-11-15T20:37:09;95000;;;10.9;71
68891;BME280;55932;48.702;8.884;2022-11-15T20:39:48;95000;;;10.8;71
68891;BME280;55932;48.702;8.884;2022-11-15T20:42:19;95000;;;10.8;71
68891;BME280;55932;48.702;8.884;2022-11-15T20:44:49;94990;;;10.9;71
68891;BME280;55932;48.702;8.884;2022-11-15T20:49:39;94990;;;10.9;71
68891;BME280;55932;48.702;8.884;2022-11-15T20:52:19;94980;;;10.9;71
68891;BME280;55932;48.702;8.884;2022-11-15T20:54:49;94980;;;10.8;71
68891;BME280;55932;48.702;8.884;2022-11-15T20:59:29;94970;;;10.8;71
68891;BME280;55932;48.702;8.884;2022-11-15T21:02:00;94980;;;10.8;71
68891;BME280;55932;48.702;8.884;2022-11-15T21:04:30;94970;;;10.8;71
68891;BME280;55932;48.702;8.884;2022-11-15T21:07:01;94960;;;10.8;71